Lamoille, Minnesota
Current Conditions -  °F | °C
As of 9:14 AM on Thursday 30 Oct 2014 (Local Time) from KONA Reporting Station
Drizzle Drizzle  
Wind Chill: 37°   Ceiling: 6500
Heat Index: 37°   Visibility: 7mi
Dew Point: 36°   Wind: 3mph
Humidity: 93%   Direction: 140°SE
Pressure: 30.08"   Gusts: NA
Location:  43.9823°N, 91.6349°W
Report Text: KONA 301414Z AUTO 14003KT 7SM DZ OVC065 03/02 A3008 RMK AO2
Loading
Personal Weather Stations






























Interactive Weather Map
Tropical Storm Tracking
New forecast layout! Learn more

10-Day Weather Forecast

Advertisements
Track Severe Weather on mobile